Lake Park, Florida
Current Conditions -  °F | °C
As of 4:53 AM on Tuesday 27 Jan 2015 (Local Time) from KPBI Reporting Station
Clear Clear  
Wind Chill: 52°   Ceiling: Unl
Heat Index: 52°   Visibility: 10mi
Dew Point: 46°   Wind: 7mph
Humidity: 80%   Direction: 260°W
Pressure: 29.97"   Gusts: NA
Location:  26.8566°N, 80.0556°W
Report Text: KPBI 270953Z 26006KT 10SM CLR 11/08 A2997 RMK AO2 SLP149 T01110078
Loading
Personal Weather Stations






























Interactive Weather Map New forecast layout! Learn more

10-Day Weather Forecast

Advertisements
Track Severe Weather on mobile